createdAt,value
2023-02-06T00:02:28.297Z,86.53
2023-02-06T00:04:57.338Z,85.67
2023-02-06T00:07:26.565Z,86.15
2023-02-06T00:09:58.535Z,86.22
2023-02-06T00:12:26.988Z,85.37
2023-02-06T00:15:20.490Z,86.67
2023-02-06T00:18:01.096Z,86.43
2023-02-06T00:20:30.338Z,86.20
2023-02-06T00:22:59.044Z,86.64
2023-02-06T00:25:36.276Z,85.34
2023-02-06T00:28:07.218Z,85.01
2023-02-06T00:30:36.226Z,85.39
2023-02-06T00:33:05.921Z,85.86
2023-02-06T00:35:34.803Z,86.38
2023-02-06T00:38:03.791Z,85.94
2023-02-06T00:40:32.224Z,85.40
2023-02-06T00:43:02.096Z,85.26
2023-02-06T00:45:30.589Z,84.88
2023-02-06T00:47:59.224Z,85.84
2023-02-06T00:50:28.604Z,85.87
2023-02-06T00:52:57.307Z,85.37
2023-02-06T00:55:25.864Z,85.18
2023-02-06T00:57:54.528Z,85.44
2023-02-06T01:00:24.854Z,85.76
2023-02-06T01:02:53.707Z,85.95
2023-02-06T01:05:22.706Z,85.21
2023-02-06T01:07:51.186Z,84.75
2023-02-06T01:10:22.428Z,85.51
2023-02-06T01:12:53.127Z,85.33
2023-02-06T01:15:23.635Z,85.93
2023-02-06T01:17:52.209Z,86.20
2023-02-06T01:20:21.779Z,86.34
2023-02-06T01:22:52.337Z,86.59
2023-02-06T01:25:21.164Z,85.92
2023-02-06T01:27:49.736Z,86.31
2023-02-06T01:30:18.823Z,85.75
2023-02-06T01:32:48.927Z,86.21
2023-02-06T01:35:17.760Z,85.92
2023-02-06T01:37:46.189Z,84.99
2023-02-06T01:40:17.655Z,85.74
2023-02-06T01:42:46.611Z,86.24
2023-02-06T01:45:34.901Z,85.69
2023-02-06T01:48:07.456Z,85.75
2023-02-06T01:50:37.933Z,86.20
2023-02-06T01:53:08.404Z,85.19
2023-02-06T01:55:40.930Z,85.44
2023-02-06T01:58:10.569Z,86.06
2023-02-06T02:00:39.543Z,85.18
2023-02-06T02:03:09.944Z,86.01
2023-02-06T02:05:40.517Z,85.98
2023-02-06T02:08:13.387Z,86.34
2023-02-06T02:10:42.128Z,85.93
2023-02-06T02:13:11.298Z,86.69
2023-02-06T02:15:44.508Z,86.93
2023-02-06T02:18:49.982Z,86.49
2023-02-06T02:21:53.314Z,86.64
2023-02-06T02:24:40.059Z,86.07
2023-02-06T02:27:21.157Z,85.00
2023-02-06T02:30:46.546Z,85.88
2023-02-06T02:33:54.313Z,86.01
2023-02-06T02:36:28.905Z,86.15
2023-02-06T02:39:03.048Z,85.33
2023-02-06T02:41:35.802Z,86.50
2023-02-06T02:44:08.765Z,85.09
2023-02-06T02:46:39.962Z,85.52
2023-02-06T02:49:23.574Z,86.07
2023-02-06T02:51:53.775Z,87.12
2023-02-06T02:54:22.885Z,86.92
2023-02-06T02:56:51.596Z,88.19
2023-02-06T02:59:24.440Z,89.19
2023-02-06T03:01:57.492Z,88.95
2023-02-06T03:04:31.139Z,88.57
2023-02-06T03:07:08.595Z,88.04
2023-02-06T03:09:47.080Z,87.91
2023-02-06T03:12:21.660Z,87.48
2023-02-06T03:14:53.774Z,87.41
2023-02-06T03:17:30.464Z,86.18
2023-02-06T03:20:00.068Z,86.79
2023-02-06T03:22:30.859Z,88.19
2023-02-06T03:24:59.743Z,88.60
2023-02-06T03:27:29.724Z,88.50
2023-02-06T03:30:00.744Z,87.92
2023-02-06T03:32:32.509Z,87.89
2023-02-06T03:35:05.546Z,87.18
2023-02-06T03:37:36.441Z,86.83
2023-02-06T03:40:06.772Z,86.87
2023-02-06T03:42:37.281Z,87.28
2023-02-06T03:45:10.076Z,86.58
2023-02-06T03:47:40.476Z,86.56
2023-02-06T03:50:11.356Z,86.63
2023-02-06T03:52:44.521Z,86.79
2023-02-06T03:55:15.153Z,87.78
2023-02-06T03:57:47.377Z,88.10
2023-02-06T04:00:16.919Z,89.19
2023-02-06T04:02:47.629Z,88.53
2023-02-06T04:05:17.474Z,89.13
2023-02-06T04:07:47.260Z,89.02
2023-02-06T04:10:15.736Z,89.51
2023-02-06T04:12:44.419Z,88.76
2023-02-06T04:15:13.137Z,88.31
2023-02-06T04:17:58.808Z,88.74
2023-02-06T04:20:29.038Z,87.44
2023-02-06T04:22:59.377Z,86.44
2023-02-06T04:25:28.041Z,87.16
2023-02-06T04:27:56.528Z,86.80
2023-02-06T04:30:25.305Z,87.53
2023-02-06T04:32:54.448Z,87.38
2023-02-06T04:35:22.977Z,87.53
2023-02-06T04:37:51.561Z,86.31
2023-02-06T04:40:21.871Z,86.63
2023-02-06T04:42:50.397Z,86.60
2023-02-06T04:45:19.192Z,86.00
2023-02-06T04:48:01.540Z,86.90
2023-02-06T04:50:32.126Z,87.30
2023-02-06T04:53:01.057Z,88.08
2023-02-06T04:55:31.100Z,88.25
2023-02-06T04:58:00.064Z,88.51
2023-02-06T05:00:29.826Z,88.21
2023-02-06T05:02:58.853Z,87.82
2023-02-06T05:05:27.248Z,87.76
2023-02-06T05:08:06.329Z,88.26
2023-02-06T05:10:36.176Z,88.02
2023-02-06T05:13:04.668Z,87.90
2023-02-06T05:15:33.148Z,87.67
2023-02-06T05:18:01.952Z,88.31
2023-02-06T05:20:30.617Z,87.46
2023-02-06T05:23:02.405Z,86.04
2023-02-06T05:25:31.263Z,87.44
2023-02-06T05:28:01.714Z,87.08
2023-02-06T05:30:30.209Z,86.60
2023-02-06T05:32:58.910Z,87.48
2023-02-06T05:35:27.470Z,87.27
2023-02-06T05:37:56.020Z,88.29
2023-02-06T05:40:51.710Z,87.27
2023-02-06T05:43:21.880Z,88.81
2023-02-06T05:45:50.424Z,88.32
2023-02-06T05:48:19.096Z,87.99
2023-02-06T05:50:50.964Z,88.37
2023-02-06T05:53:19.835Z,87.28
2023-02-06T05:55:48.425Z,87.89
2023-02-06T05:58:31.793Z,88.64
2023-02-06T06:01:00.748Z,88.50
2023-02-06T06:03:31.920Z,86.91
2023-02-06T06:06:02.293Z,87.84
2023-02-06T06:08:31.322Z,87.81
2023-02-06T06:11:20.620Z,88.70
2023-02-06T06:13:51.038Z,88.80
2023-02-06T06:16:19.834Z,87.61
2023-02-06T06:18:48.641Z,88.12
2023-02-06T06:21:17.093Z,87.45
2023-02-06T06:23:45.810Z,87.98
2023-02-06T06:27:04.593Z,88.65
2023-02-06T06:29:34.575Z,89.19
2023-02-06T06:32:03.137Z,88.82
2023-02-06T06:34:31.712Z,90.21
2023-02-06T06:37:00.738Z,89.99
2023-02-06T06:39:29.238Z,89.56
2023-02-06T06:41:57.795Z,89.34
2023-02-06T06:44:26.272Z,89.02
2023-02-06T06:46:56.336Z,88.82
2023-02-06T06:49:25.094Z,87.98
2023-02-06T06:51:53.844Z,87.60
2023-02-06T06:54:23.231Z,88.42
2023-02-06T06:57:53.320Z,87.69
2023-02-06T07:00:22.569Z,88.39
2023-02-06T07:03:08.142Z,87.52
2023-02-06T07:05:37.074Z,87.42
2023-02-06T07:08:06.722Z,87.38
2023-02-06T07:10:35.288Z,86.50
2023-02-06T07:13:03.829Z,86.33
2023-02-06T07:15:33.133Z,86.64
2023-02-06T07:18:03.084Z,87.32
2023-02-06T07:20:31.888Z,86.38
2023-02-06T07:23:01.837Z,86.45
2023-02-06T07:25:30.591Z,86.99
2023-02-06T07:27:59.255Z,87.32
2023-02-06T07:30:27.877Z,87.41
2023-02-06T07:32:56.806Z,85.72
2023-02-06T07:35:26.628Z,83.66
2023-02-06T07:38:17.044Z,83.87
2023-02-06T07:40:46.216Z,83.80
2023-02-06T07:43:16.453Z,83.96
2023-02-06T07:45:45.277Z,83.51
2023-02-06T07:48:17.185Z,83.04
2023-02-06T07:50:48.456Z,83.35
2023-02-06T07:53:17.548Z,84.71
2023-02-06T07:55:45.892Z,85.11
2023-02-06T07:58:14.741Z,83.90
2023-02-06T08:00:45.836Z,83.22
2023-02-06T08:06:50.693Z,81.94
2023-02-06T08:09:19.284Z,81.92
2023-02-06T08:11:48.078Z,81.42
2023-02-06T08:14:19.617Z,81.52
2023-02-06T08:16:52.020Z,81.73
2023-02-06T08:19:21.012Z,81.85
2023-02-06T08:21:51.110Z,80.41
2023-02-06T08:24:19.699Z,80.12
2023-02-06T08:26:50.940Z,79.52
2023-02-06T08:29:19.687Z,79.40
2023-02-06T08:31:48.706Z,79.74
2023-02-06T08:34:19.539Z,79.95
2023-02-06T08:36:48.636Z,79.27
2023-02-06T08:39:19.501Z,78.70
2023-02-06T08:41:50.088Z,78.53
2023-02-06T08:44:19.631Z,79.88
2023-02-06T08:46:52.360Z,80.06
2023-02-06T08:49:26.553Z,79.56
2023-02-06T08:51:55.616Z,79.34
2023-02-06T08:54:25.807Z,79.11
2023-02-06T08:56:56.507Z,80.19
2023-02-06T08:59:25.606Z,80.22
2023-02-06T09:01:54.239Z,80.25
2023-02-06T09:04:23.151Z,78.27
2023-02-06T09:06:52.373Z,76.71
2023-02-06T09:09:21.398Z,74.57
2023-02-06T09:11:55.747Z,75.28
2023-02-06T09:14:27.554Z,76.17
2023-02-06T09:16:57.401Z,76.37
2023-02-06T09:19:26.343Z,77.93
2023-02-06T09:21:55.320Z,75.70
2023-02-06T09:24:24.128Z,75.64
2023-02-06T09:26:59.712Z,74.21
2023-02-06T09:29:32.206Z,72.52
2023-02-06T09:32:01.447Z,71.31
2023-02-06T09:34:30.539Z,69.68
2023-02-06T09:37:01.623Z,69.59
2023-02-06T09:39:30.429Z,69.06
2023-02-06T09:42:04.855Z,72.00
2023-02-06T09:44:35.776Z,70.23
2023-02-06T09:47:06.632Z,70.23
2023-02-06T09:49:40.801Z,69.49
2023-02-06T09:53:01.398Z,68.94
2023-02-06T09:55:36.141Z,69.48
2023-02-06T09:58:19.439Z,68.04
2023-02-06T10:00:52.287Z,67.70
2023-02-06T10:03:31.755Z,66.30
2023-02-06T10:06:19.422Z,66.56
2023-02-06T10:08:55.676Z,68.51
2023-02-06T10:11:48.209Z,67.46
2023-02-06T10:14:22.993Z,67.09
2023-02-06T10:16:56.928Z,66.66
2023-02-06T10:19:36.452Z,66.75
2023-02-06T10:22:08.730Z,67.43
2023-02-06T10:24:46.424Z,67.38
2023-02-06T10:27:16.488Z,67.06
2023-02-06T10:29:47.965Z,67.51
2023-02-06T10:32:37.608Z,66.81
2023-02-06T10:35:24.415Z,66.24
2023-02-06T10:38:35.878Z,65.43
2023-02-06T10:41:10.154Z,64.75
2023-02-06T10:43:45.021Z,63.05
2023-02-06T10:46:46.539Z,62.92
2023-02-06T10:49:24.712Z,62.03
2023-02-06T10:51:54.974Z,61.07
2023-02-06T10:54:26.320Z,60.80
2023-02-06T10:56:56.210Z,60.20
2023-02-06T10:59:30.548Z,59.42
2023-02-06T11:02:14.165Z,58.87
2023-02-06T11:04:46.070Z,56.56
2023-02-06T11:07:18.189Z,55.65
2023-02-06T11:09:47.214Z,57.37
2023-02-06T11:12:30.128Z,57.13
2023-02-06T11:15:00.927Z,59.53
2023-02-06T11:17:35.421Z,60.11
2023-02-06T11:20:17.943Z,59.82
2023-02-06T11:22:52.717Z,60.76
2023-02-06T11:25:29.128Z,63.24
2023-02-06T11:27:58.221Z,64.20
2023-02-06T11:30:33.795Z,65.17
2023-02-06T11:33:07.149Z,63.98
2023-02-06T11:35:39.479Z,62.30
2023-02-06T11:38:33.292Z,63.88
2023-02-06T11:41:03.675Z,65.03
2023-02-06T11:43:34.123Z,65.24
2023-02-06T11:46:15.447Z,65.13
2023-02-06T11:48:47.181Z,65.89
2023-02-06T11:51:17.285Z,65.52
2023-02-06T11:53:57.766Z,65.14
2023-02-06T11:56:27.195Z,65.87
2023-02-06T11:59:08.242Z,67.24
2023-02-06T12:01:43.750Z,67.24
2023-02-06T12:04:24.096Z,66.04
2023-02-06T12:06:56.748Z,65.53
2023-02-06T12:09:25.490Z,65.76
2023-02-06T12:12:01.089Z,64.63
2023-02-06T12:14:34.856Z,63.67
2023-02-06T12:17:05.266Z,63.04
2023-02-06T12:19:43.654Z,62.31
2023-02-06T12:22:18.281Z,60.85
2023-02-06T12:24:49.837Z,59.50
2023-02-06T12:27:22.409Z,58.75
2023-02-06T12:29:57.842Z,57.19
2023-02-06T12:32:44.710Z,52.98
2023-02-06T12:35:22.780Z,50.26
2023-02-06T12:37:55.548Z,48.39
2023-02-06T12:40:40.452Z,46.36
2023-02-06T12:43:11.762Z,42.22
2023-02-06T12:45:46.573Z,40.66
2023-02-06T12:48:23.449Z,40.08
2023-02-06T12:51:01.157Z,39.76
2023-02-06T12:53:32.935Z,37.98
2023-02-06T12:56:23.759Z,36.46
2023-02-06T12:58:59.855Z,34.73
2023-02-06T13:01:43.981Z,35.39
2023-02-06T13:04:16.377Z,34.33
2023-02-06T13:06:53.663Z,33.66
2023-02-06T13:09:26.573Z,33.52
2023-02-06T13:11:55.315Z,31.82
2023-02-06T13:14:26.045Z,32.26
2023-02-06T13:17:00.378Z,30.68
2023-02-06T13:19:53.582Z,29.75
2023-02-06T13:22:49.550Z,30.88
2023-02-06T13:26:02.331Z,29.82
2023-02-06T13:29:03.673Z,29.03
2023-02-06T13:31:35.745Z,28.81
2023-02-06T13:34:17.678Z,29.51
2023-02-06T13:36:52.599Z,29.55
2023-02-06T13:39:33.465Z,29.86
2023-02-06T13:42:29.671Z,28.33
2023-02-06T13:44:59.444Z,27.28
2023-02-06T13:47:50.454Z,27.96
2023-02-06T13:50:29.712Z,27.85
2023-02-06T13:53:26.138Z,26.99
2023-02-06T13:56:31.310Z,27.35
2023-02-06T13:59:06.731Z,27.29
2023-02-06T14:01:35.987Z,27.17
2023-02-06T14:04:09.275Z,25.47
2023-02-06T14:07:02.272Z,25.39
2023-02-06T14:09:43.062Z,25.63
2023-02-06T14:12:34.297Z,24.81
2023-02-06T14:15:26.260Z,24.90
2023-02-06T14:18:16.269Z,25.44
2023-02-06T14:20:51.272Z,27.24
2023-02-06T14:23:28.983Z,28.14
2023-02-06T14:26:06.948Z,30.58
2023-02-06T14:28:45.554Z,30.59
2023-02-06T14:31:25.112Z,30.29
2023-02-06T14:34:24.660Z,32.97
2023-02-06T14:37:06.589Z,33.66
2023-02-06T14:39:40.172Z,33.24
2023-02-06T14:42:13.386Z,34.30
2023-02-06T14:44:44.702Z,36.12
2023-02-06T14:47:19.304Z,37.46
2023-02-06T14:49:48.833Z,38.94
2023-02-06T14:52:21.175Z,38.90
2023-02-06T14:54:50.269Z,40.40
2023-02-06T14:57:24.210Z,40.66
2023-02-06T14:59:59.652Z,40.73
2023-02-06T15:02:34.267Z,41.91
2023-02-06T15:05:03.908Z,44.03
2023-02-06T15:07:34.455Z,45.73
2023-02-06T15:10:07.595Z,47.80
2023-02-06T15:12:37.007Z,47.01
2023-02-06T15:15:18.662Z,45.15
2023-02-06T15:17:58.901Z,44.56
2023-02-06T15:20:31.338Z,46.48
2023-02-06T15:23:17.666Z,46.83
2023-02-06T15:26:04.762Z,49.71
2023-02-06T15:28:37.953Z,51.20
2023-02-06T15:31:20.488Z,53.97
2023-02-06T15:34:04.227Z,54.12
2023-02-06T15:36:37.685Z,55.54
2023-02-06T15:39:09.787Z,56.24
2023-02-06T15:41:38.765Z,56.99
2023-02-06T15:44:14.171Z,57.62
2023-02-06T15:46:44.882Z,58.63
2023-02-06T15:49:19.531Z,60.69
2023-02-06T15:51:53.961Z,61.54
2023-02-06T15:54:24.373Z,62.34
2023-02-06T15:56:55.496Z,64.14
2023-02-06T15:59:28.096Z,66.45
2023-02-06T16:01:59.330Z,66.13
2023-02-06T16:04:32.728Z,66.25
2023-02-06T16:07:04.568Z,66.35
2023-02-06T16:09:33.465Z,66.55
2023-02-06T16:12:02.644Z,67.80
2023-02-06T16:14:35.250Z,69.85
2023-02-06T16:17:08.107Z,70.20
2023-02-06T16:19:46.164Z,71.61
2023-02-06T16:22:19.463Z,72.05
2023-02-06T16:24:48.222Z,73.77
2023-02-06T16:27:19.584Z,73.93
2023-02-06T16:29:53.791Z,74.33
2023-02-06T16:32:32.962Z,75.35
2023-02-06T16:35:02.461Z,74.80
2023-02-06T16:37:32.247Z,74.22
2023-02-06T16:40:27.706Z,75.91
2023-02-06T16:42:57.130Z,75.75
2023-02-06T16:45:27.551Z,76.39
2023-02-06T16:48:03.709Z,75.59
2023-02-06T16:53:30.513Z,76.30
2023-02-06T16:55:59.022Z,76.23
2023-02-06T16:58:30.445Z,76.74
2023-02-06T17:01:02.149Z,77.36
2023-02-06T17:03:32.855Z,76.30
2023-02-06T17:06:02.072Z,75.44
2023-02-06T17:08:30.970Z,76.08
2023-02-06T17:11:00.361Z,75.72
2023-02-06T17:13:29.033Z,76.09
2023-02-06T17:15:57.809Z,76.11
2023-02-06T17:18:29.282Z,75.86
2023-02-06T17:20:59.319Z,76.22
2023-02-06T17:23:27.874Z,75.24
2023-02-06T17:25:56.756Z,74.44
2023-02-06T17:28:25.771Z,75.22
2023-02-06T17:30:54.905Z,74.80
2023-02-06T17:33:23.959Z,75.55
2023-02-06T17:35:57.617Z,75.30
2023-02-06T17:38:27.481Z,74.44
2023-02-06T17:40:56.661Z,74.28
2023-02-06T17:43:25.731Z,73.41
2023-02-06T17:45:57.419Z,73.97
2023-02-06T17:48:26.123Z,74.19
2023-02-06T17:50:54.728Z,74.71
2023-02-06T17:53:23.501Z,75.14
2023-02-06T17:55:53.603Z,75.63
2023-02-06T17:58:22.872Z,75.34
2023-02-06T18:00:51.613Z,76.86
2023-02-06T18:03:20.117Z,76.66
2023-02-06T18:05:57.658Z,77.41
2023-02-06T18:08:30.332Z,77.33
2023-02-06T18:11:00.679Z,78.23
2023-02-06T18:13:31.493Z,77.60
2023-02-06T18:16:00.171Z,76.58
2023-02-06T18:18:28.893Z,76.91
2023-02-06T18:20:57.365Z,76.85
2023-02-06T18:23:26.801Z,76.94
2023-02-06T18:25:55.454Z,77.12
2023-02-06T18:28:25.999Z,77.54
2023-02-06T18:30:54.691Z,77.73
2023-02-06T18:33:23.519Z,79.22
2023-02-06T18:35:52.277Z,78.81
2023-02-06T18:38:21.171Z,78.97
2023-02-06T18:40:50.479Z,79.71
2023-02-06T18:46:09.049Z,79.85
2023-02-06T18:48:37.614Z,80.04
2023-02-06T18:51:08.757Z,79.88
2023-02-06T18:53:37.518Z,79.22
2023-02-06T18:56:08.818Z,79.36
2023-02-06T18:58:37.763Z,79.35
2023-02-06T19:01:14.372Z,79.74
2023-02-06T19:03:43.609Z,80.13
2023-02-06T19:06:17.845Z,81.08
2023-02-06T19:08:49.675Z,82.22
2023-02-06T19:11:21.678Z,82.72
2023-02-06T19:13:50.687Z,82.16
2023-02-06T19:16:21.883Z,81.93
2023-02-06T19:18:51.009Z,82.35
2023-02-06T19:21:24.466Z,82.31
2023-02-06T19:23:56.542Z,82.11
2023-02-06T19:26:41.560Z,81.09
2023-02-06T19:29:10.899Z,80.88
2023-02-06T19:31:42.857Z,81.01
2023-02-06T19:34:13.956Z,81.48
2023-02-06T19:36:45.179Z,80.41
2023-02-06T19:39:15.062Z,81.55
2023-02-06T19:41:45.544Z,80.66
2023-02-06T19:44:16.008Z,81.07
2023-02-06T19:46:46.395Z,80.85
2023-02-06T19:49:24.474Z,80.83
2023-02-06T19:51:53.525Z,80.93
2023-02-06T19:54:23.052Z,81.22
2023-02-06T19:56:52.088Z,80.30
2023-02-06T19:59:22.550Z,80.51
2023-02-06T20:01:54.403Z,80.70
2023-02-06T20:04:24.806Z,81.03
2023-02-06T20:06:54.126Z,81.82
2023-02-06T20:09:24.213Z,80.86
2023-02-06T20:11:52.965Z,80.32
2023-02-06T20:14:23.852Z,81.75
2023-02-06T20:16:54.029Z,80.87
2023-02-06T20:19:25.688Z,81.13
2023-02-06T20:21:56.542Z,81.62
2023-02-06T20:24:27.684Z,82.84
2023-02-06T20:26:59.188Z,82.27
2023-02-06T20:29:33.000Z,82.21
2023-02-06T20:32:04.331Z,80.88
2023-02-06T20:34:36.591Z,82.56
2023-02-06T20:37:06.837Z,81.68
2023-02-06T20:39:36.002Z,82.51
2023-02-06T20:42:07.044Z,82.17
2023-02-06T20:44:36.070Z,81.72
2023-02-06T20:47:06.126Z,82.76
2023-02-06T20:49:35.008Z,83.92
2023-02-06T20:52:16.240Z,83.36
2023-02-06T20:54:47.020Z,84.10
2023-02-06T20:57:15.825Z,83.67
2023-02-06T20:59:45.292Z,83.60
2023-02-06T21:02:17.312Z,83.07
2023-02-06T21:04:47.533Z,84.17
2023-02-06T21:07:20.071Z,84.51
2023-02-06T21:09:48.779Z,83.96
2023-02-06T21:12:18.126Z,84.83
2023-02-06T21:14:46.794Z,84.64
2023-02-06T21:17:19.671Z,85.55
2023-02-06T21:19:48.407Z,85.22
2023-02-06T21:22:21.916Z,84.90
2023-02-06T21:24:51.032Z,86.09
2023-02-06T21:27:19.808Z,85.84
2023-02-06T21:29:52.063Z,86.13
2023-02-06T21:32:22.300Z,86.02
2023-02-06T21:34:50.981Z,85.42
2023-02-06T21:37:22.729Z,85.57
2023-02-06T21:39:51.309Z,86.30
2023-02-06T21:42:26.765Z,85.93
2023-02-06T21:44:55.442Z,86.04
2023-02-06T21:47:25.305Z,86.36
2023-02-06T21:49:54.131Z,86.06
2023-02-06T21:52:23.061Z,86.27
2023-02-06T21:54:52.024Z,85.71
2023-02-06T21:57:20.490Z,86.35
2023-02-06T21:59:49.419Z,85.99
2023-02-06T22:02:17.987Z,86.25
2023-02-06T22:04:48.213Z,86.32
2023-02-06T22:07:17.205Z,85.98
2023-02-06T22:09:45.844Z,86.08
2023-02-06T22:12:17.106Z,86.41
2023-02-06T22:14:45.976Z,86.81
2023-02-06T22:17:14.351Z,87.32
2023-02-06T22:19:43.730Z,86.19
2023-02-06T22:22:13.911Z,86.78
2023-02-06T22:24:44.331Z,87.14
2023-02-06T22:27:13.182Z,86.87
2023-02-06T22:29:42.380Z,86.64
2023-02-06T22:32:10.939Z,85.29
2023-02-06T22:34:39.418Z,85.94
2023-02-06T22:37:08.113Z,86.24
2023-02-06T22:39:38.386Z,86.23
2023-02-06T22:42:07.563Z,85.31
2023-02-06T22:44:36.000Z,86.41
2023-02-06T22:47:04.652Z,86.81
2023-02-06T22:49:33.697Z,86.53
2023-02-06T22:52:02.463Z,86.74
2023-02-06T22:54:30.943Z,86.97
2023-02-06T22:57:18.837Z,87.45
2023-02-06T22:59:47.497Z,86.91
2023-02-06T23:02:15.918Z,86.13
2023-02-06T23:04:44.748Z,87.52
2023-02-06T23:07:14.699Z,87.60
2023-02-06T23:09:44.291Z,86.88
2023-02-06T23:12:14.451Z,87.37
2023-02-06T23:14:44.496Z,87.21
2023-02-06T23:17:13.218Z,86.92
2023-02-06T23:19:41.760Z,87.56
2023-02-06T23:22:15.488Z,87.17
2023-02-06T23:24:46.147Z,87.23
2023-02-06T23:27:21.655Z,86.94
2023-02-06T23:29:50.560Z,87.19
2023-02-06T23:32:58.470Z,87.33
2023-02-06T23:35:27.338Z,87.88
2023-02-06T23:37:56.675Z,87.24
2023-02-06T23:40:25.300Z,87.51
2023-02-06T23:42:56.176Z,86.91
2023-02-06T23:45:25.197Z,87.76
2023-02-06T23:47:54.592Z,87.36
2023-02-06T23:50:23.682Z,88.10
2023-02-06T23:52:52.512Z,88.33
2023-02-06T23:55:25.137Z,88.86
2023-02-06T23:57:53.657Z,89.07
